Lawrenceburg, IN

6:54 AM EDT on August 31, 2014 (GMT -0400)
Cincinnati-Northern KY International | Change Station
CLOSE
Current Station
Airport
Location: Covington,
Elevation: 876 ft
Nearby Weather Stations

Elev 876 ft 39.04 °N, 84.67 °W | Updated 1 hour ago

Light Rain
Light Rain Mist
72 °F
Feels Like 72 °F
N
9
Wind Variable Wind from SSW

Today
High -- | Low -- °F
--% Chance of Precip.
Yesterday
High -- | Low -- °F
Precip. -- in
7:07 AM 8:11 PM
Waxing Crescent, 30% visible
Pressure 30.00 in
Visibility 4.0 miles
Clouds Overcast 500 ft
Dew Point 70 °F
Humidity 93%
Rainfall 0.00 in
Snow Depth Not available.
UV 0 out of 12
Pollen 10.80 out of 12
Air Quality Not available.
Flu Activity Not available.
METAR KCVG 310952Z 20008KT 4SM -RA BR OVC005 22/21 A3003 RMK AO2 RAE29B45 SLP158 P0000 T02220211

More Conditions Fewer Conditions

Pressure 30.00 in
Visibility 4.0 miles
Clouds Overcast 500 ft
Dew Point 70 °F
Humidity 93%
Rainfall 0.00 in
Snow Depth Not available.
UV 0 out of 12
Pollen 10.80 out of 12
Air Quality Not available.
Flu Activity Not available.
METAR KCVG 310952Z 20008KT 4SM -RA BR OVC005 22/21 A3003 RMK AO2 RAE29B45 SLP158 P0000 T02220211

More Conditions Fewer Conditions

10-Day Weather Forecast

Almanac

Astronomy

Aug. 31, 2014 Rise Set
Actual Time 7:07 AM EDT 8:11 PM EDT
Civil Twilight 6:39 AM EDT 8:39 PM EDT
Nautical Twilight 6:07 AM EDT 9:11 PM EDT
Astronomical Twilight 5:32 AM EDT 9:45 PM EDT
Moon 12:50 PM EDT 11:28 PM EDT
Length of Visible Light 13h 59m
Length of Day
13h 04m
Tomorrow will be 2m 27s shorter.
Waxing Crescent, 30% of the Moon is Illuminated
Today
Waxing Crescent
Sep 2
First Quarter
Sep 8
Full
Sep 15
Last Quarter
Sep 24
New

Today's Extremes

State Highs State Lows

Community

WunderPhotos

Upload Photos

1,748,837 photos uploaded!

Nearby

Snow Depth

Station Depth Elevation
No new snow has been reported.

Earthquake Activity

City Distance Mag. Time & Date
No recent earthquake activity has been reported nearby.
Minimum magnitude displayed is 2.5.

Coastal Water Temperatures

Place Temperature
No Stations Reporting

Nearby Weather Stations